Airport View

Enter AWOS ICAO identifier for current METAR.

ex. KFNL

KMNH 202235Z AUTO 06013KT 10SM CLR 16/M03 A3007 RMK AO2

20 Oct 2020 22:52

Frequency: 134.375

Phone: 303-648-3479

Other Area AWOS: KFLY - KAFF - KAPA - KCOS

TAF AMD KAPA 202052Z 2021/2118 07010KT P6SM FU SCT130 BKN220 FM210100 13012KT P6SM SCT130 BKN220 FM210500 18014KT P6SM SCT220 FM211400 25007KT P6SM SCT220